Latest Weather Observations for Penrith

IDN60901

Issued at 8:51 pm EST Sunday 19 April 2015 (issued every 10 minutes, with the page automatically refreshed every 10 minutes)

About weather observations | Map of Sydney area stations | Latest observations for Sydney area | Other Formats
Station Details ID: 067113 Name: PENRITH LAKES AWS Lat: -33.72 Lon: 150.68 Height: 24.7 m
Data from the previous 72 hours. | See also: Recent months at Penrith
Date/Time
EST
Tmp

°C
App
Tmp
°C
Dew
Point
°C
Rel
Hum
%
Delta-T

°C
Wind Press
QNH
hPa
Press
MSL
hPa
Rain
since
9 am
mm
Dir
 
Spd
km/h
Gust
km/h
Spd
kts
Gust
kts
19/08:30pm 13.3 10.3 9.2 76 2.1 SSW 15 20 8 11 - - 0.0
19/08:00pm 13.5 9.6 8.6 72 2.5 SSW 19 28 10 15 - - 0.0
19/07:30pm 13.7 9.4 9.2 74 2.3 SSW 22 39 12 21 - - 0.0
19/07:00pm 15.3 11.3 9.0 66 3.2 S 20 32 11 17 - - 0.0
19/06:30pm 15.8 11.7 8.5 62 3.7 SSE 20 30 11 16 - - 0.0
19/06:00pm 16.2 11.9 9.2 63 3.6 SSE 22 32 12 17 - - 0.0
19/05:30pm 17.4 13.8 9.8 61 4.0 SSE 19 28 10 15 - - 0.0
19/05:00pm 18.0 14.9 10.4 61 4.1 SSE 17 28 9 15 - - 0.0
19/04:30pm 18.5 14.6 10.8 61 4.2 SE 22 33 12 18 - - 0.0
19/04:00pm 19.4 16.2 11.4 60 4.4 SSE 19 24 10 13 - - 0.0
19/03:30pm 19.9 16.9 11.9 60 4.4 SSE 19 28 10 15 - - 0.0
19/03:00pm 20.6 16.5 11.5 56 5.0 SE 24 33 13 18 - - 0.0
19/02:30pm 23.4 21.5 6.7 34 8.6 SW 6 11 3 6 - - 0.0
19/02:00pm 23.3 20.6 7.4 36 8.3 S 11 17 6 9 - - 0.0
19/01:30pm 23.1 20.2 8.0 38 8.0 S 13 22 7 12 - - 0.0
19/01:00pm 22.2 19.5 7.2 38 7.7 SSW 11 19 6 10 - - 0.0
19/12:30pm 23.0 20.1 8.3 39 7.8 SW 13 22 7 12 - - 0.0
19/12:00pm 22.5 19.2 7.9 39 7.7 SW 15 28 8 15 - - 0.0
19/11:30am 22.4 18.7 7.8 39 7.6 SW 17 26 9 14 - - 0.0
19/11:00am 22.4 19.6 8.5 41 7.4 SW 13 24 7 13 - - 0.0
19/10:30am 21.8 18.7 8.7 43 6.9 WSW 15 22 8 12 - - 0.0
19/10:00am 21.1 18.0 8.7 45 6.5 WSW 15 22 8 12 - - 0.0
19/09:30am 20.1 16.2 8.8 48 5.9 SSW 19 26 10 14 - - 0.0
19/09:00am 19.7 16.7 9.3 51 5.5 SW 15 26 8 14 - - 3.0
19/08:30am 18.8 15.4 9.3 54 5.0 SW 17 26 9 14 - - 3.0
19/08:00am 18.3 16.4 10.4 60 4.2 S 11 17 6 9 - - 3.0
19/07:30am 17.7 17.9 14.8 83 1.7 SSW 7 13 4 7 - - 3.0
19/07:00am 16.1 17.8 15.3 95 0.5 CALM 0 6 0 3 - - 3.0
19/06:30am 16.4 18.3 15.8 96 0.4 CALM 0 0 0 0 - - 3.0
19/05:30am 16.4 17.6 15.8 96 0.4 SW 4 6 2 3 - - 3.0
19/05:00am 17.0 18.3 16.2 95 0.5 S 4 7 2 4 - - 3.0
19/04:30am 17.4 17.2 16.6 95 0.5 N 13 15 7 8 - - 3.0
19/04:00am 17.6 17.4 16.8 95 0.5 NNW 13 15 7 8 - - 3.0
19/03:30am 18.0 18.9 16.7 92 0.8 NNW 7 9 4 5 - - 3.0
19/03:00am 18.5 18.8 15.9 85 1.5 NNE 9 15 5 8 - - 3.0
19/02:30am 18.1 19.4 17.5 96 0.4 NNE 7 11 4 6 - - 3.0
19/02:00am 18.1 18.7 17.6 97 0.3 N 11 15 6 8 - - 3.0
19/01:30am 18.2 18.8 17.7 97 0.3 NNE 11 17 6 9 - - 3.0
19/01:00am 18.5 20.1 17.9 96 0.4 NNE 6 7 3 4 - - 3.0
19/12:30am 18.4 19.5 17.9 97 0.3 N 9 11 5 6 - - 2.8
19/12:00am 18.4 19.8 17.8 96 0.4 NNE 7 9 4 5 - - 2.8
 
Date/Time
EST
Tmp

°C
App
Tmp
°C
Dew
Point
°C
Rel
Hum
%
Delta-T

°C
Wind Press
QNH
hPa
Press
MSL
hPa
Rain
since
9 am
mm
Dir
 
Spd
km/h
Gust
km/h
Spd
kts
Gust
kts
18/11:30pm 18.5 20.0 17.5 94 0.6 N 6 7 3 4 - - 2.8
18/11:00pm 18.6 19.9 17.1 91 0.9 N 6 6 3 3 - - 2.2
18/10:30pm 19.1 20.4 17.1 88 1.2 N 6 7 3 4 - - 1.0
18/10:00pm 19.2 19.6 16.4 84 1.7 NNE 9 13 5 7 - - 0.4
18/09:30pm 20.2 18.7 15.2 73 3.0 NNE 17 20 9 11 - - 0.0
18/09:00pm 21.7 20.8 14.8 65 4.1 N 13 20 7 11 - - 0.0
18/08:30pm 21.1 20.6 16.9 77 2.6 WNW 15 22 8 12 - - 0.0
18/08:00pm 20.7 22.7 17.9 84 1.7 N 4 6 2 3 - - 0.0
18/07:30pm 20.8 22.3 17.6 82 2.0 N 6 7 3 4 - - 0.0
18/07:00pm 20.9 21.8 16.7 77 2.5 N 7 9 4 5 - - 0.0
18/06:30pm 21.5 22.0 16.5 73 3.0 N 9 11 5 6 - - 0.0
18/06:00pm 21.6 22.6 16.8 74 2.9 N 7 9 4 5 - - 0.0
18/05:30pm 22.1 22.7 16.8 72 3.2 N 9 13 5 7 - - 0.0
18/05:00pm 22.7 23.2 16.5 68 3.8 N 9 13 5 7 - - 0.0
18/04:30pm 23.5 23.2 15.5 60 4.8 N 11 17 6 9 - - 0.0
18/04:00pm 24.2 23.7 15.9 59 5.0 N 13 19 7 10 - - 0.0
18/03:30pm 24.7 25.1 16.4 60 5.1 N 9 17 5 9 - - 0.0
18/03:00pm 24.7 23.7 15.6 57 5.5 NNE 15 19 8 10 - - 0.0
18/02:30pm 25.1 23.9 16.0 57 5.6 N 17 24 9 13 - - 0.0
18/02:00pm 25.6 24.1 16.2 56 5.8 NNE 19 24 10 13 - - 0.0
18/01:30pm 26.7 25.1 15.1 49 7.0 N 17 22 9 12 - - 0.0
18/01:00pm 26.9 26.4 15.9 51 6.7 NNE 13 19 7 10 - - 0.0
18/12:30pm 27.0 25.9 15.4 49 7.1 N 15 20 8 11 - - 0.0
18/12:00pm 27.7 27.1 15.7 48 7.4 N 13 19 7 10 - - 0.0
18/11:30am 26.6 27.1 16.5 54 6.2 N 9 15 5 8 - - 0.0
18/11:00am 25.4 26.3 17.6 62 4.9 N 9 13 5 7 - - 0.0
18/10:30am 24.7 24.5 16.7 61 4.9 NNE 13 19 7 10 - - 0.0
18/10:00am 24.6 25.2 17.6 65 4.4 N 11 17 6 9 - - 0.0
18/09:30am 22.5 25.2 18.7 79 2.4 NNE 2 4 1 2 - - 0.0
18/09:00am 20.7 22.5 17.5 82 2.0 NW 4 6 2 3 - - 0.4
18/08:30am 19.8 22.4 17.6 87 1.3 CALM 0 0 0 0 - - 0.4
18/08:00am 18.9 20.8 16.7 87 1.3 NW 2 4 1 2 - - 0.4
18/07:30am 18.6 21.2 17.4 93 0.7 CALM 0 4 0 2 - - 0.4
18/07:00am 18.2 20.6 16.9 92 0.8 CALM 0 0 0 0 - - 0.2
18/06:30am 18.1 20.6 17.3 95 0.5 CALM 0 0 0 0 - - 0.2
18/06:00am 18.4 21.1 17.8 96 0.4 CALM 0 0 0 0 - - 0.2
18/05:30am 18.4 21.1 17.8 96 0.4 CALM 0 0 0 0 - - 0.2
18/05:00am 18.4 21.1 17.8 96 0.4 CALM 0 0 0 0 - - 0.2
18/04:30am 18.5 21.3 18.0 97 0.3 CALM 0 0 0 0 - - 0.2
18/04:00am 18.6 21.5 18.1 97 0.3 CALM 0 0 0 0 - - 0.2
18/03:30am 18.7 21.6 18.2 97 0.3 CALM 0 0 0 0 - - 0.2
18/03:00am 18.9 22.0 18.6 98 0.2 CALM 0 0 0 0 - - 0.2
18/02:30am 18.6 21.5 18.3 98 0.2 CALM 0 0 0 0 - - 0.2
18/02:00am 19.0 22.1 18.7 98 0.2 CALM 0 0 0 0 - - 0.2
18/01:30am 18.9 21.6 18.6 98 0.2 NNW 2 2 1 1 - - 0.2
18/01:00am 19.2 21.6 18.9 98 0.2 NNW 4 6 2 3 - - 0.2
18/12:30am 19.5 22.4 19.0 97 0.3 NNW 2 4 1 2 - - 0.2
18/12:00am 19.4 21.8 18.9 97 0.3 N 4 4 2 2 - - 0.2
 
Date/Time
EST
Tmp

°C
App
Tmp
°C
Dew
Point
°C
Rel
Hum
%
Delta-T

°C
Wind Press
QNH
hPa
Press
MSL
hPa
Rain
since
9 am
mm
Dir
 
Spd
km/h
Gust
km/h
Spd
kts
Gust
kts
17/11:30pm 19.8 22.3 19.1 96 0.4 ENE 4 6 2 3 - - 0.2
17/11:00pm 19.8 23.1 19.0 95 0.5 CALM 0 4 0 2 - - 0.2
17/10:30pm 20.1 23.5 19.3 95 0.5 CALM 0 2 0 1 - - 0.2
17/10:00pm 20.0 23.0 19.2 95 0.5 NE 2 2 1 1 - - 0.2
17/09:30pm 20.1 22.6 19.1 94 0.6 NE 4 4 2 2 - - 0.2
17/09:00pm 20.4 23.0 19.2 93 0.8 NE 4 6 2 3 - - 0.2
17/08:30pm 20.5 23.1 19.2 92 0.8 NE 4 6 2 3 - - 0.2
17/08:00pm 20.6 22.8 19.1 91 0.9 NNE 6 9 3 5 - - 0.2
17/07:30pm 20.7 23.1 19.7 94 0.6 NNE 6 7 3 4 - - 0.2
17/07:00pm 20.9 24.7 20.1 95 0.5 CALM 0 2 0 1 - - 0.2
17/06:30pm 20.8 23.7 19.8 94 0.6 SSW 4 4 2 2 - - 0.2
17/06:00pm 20.9 23.7 19.7 93 0.8 SSW 4 6 2 3 - - 0.2
17/05:30pm 21.0 23.3 19.5 91 1.0 SW 6 7 3 4 - - 0.2
17/05:00pm 21.2 23.2 19.1 88 1.3 SW 7 7 4 4 - - 0.2
17/04:30pm 21.7 24.7 18.5 82 2.0 CALM 0 0 0 0 - - 0.2
17/04:00pm 21.7 24.0 18.5 82 2.0 E 4 6 2 3 - - 0.2
17/03:30pm 21.7 24.0 18.5 82 2.0 ESE 4 4 2 2 - - 0.2
17/03:00pm 21.8 24.2 18.8 83 1.9 ESE 4 6 2 3 - - 0.2
17/02:30pm 21.8 24.0 18.4 81 2.1 ENE 4 6 2 3 - - 0.2
17/02:00pm 21.6 23.5 18.6 83 1.9 ENE 6 9 3 5 - - 0.2
17/01:30pm 21.7 24.5 18.9 84 1.8 ENE 2 4 1 2 - - 0.2
17/01:00pm 21.5 24.5 20.0 91 1.0 SW 4 6 2 3 - - 0.2
17/12:30pm 20.8 23.9 19.6 93 0.8 SW 2 4 1 2 - - 0.2
17/12:00pm 20.4 23.9 19.6 95 0.5 CALM 0 0 0 0 - - 0.2
17/11:30am 20.2 23.8 19.7 97 0.3 CALM 0 0 0 0 - - 0.2
17/11:00am 19.9 23.4 19.6 98 0.2 CALM 0 0 0 0 - - 0.2
17/10:30am 19.8 22.9 19.5 98 0.2 SE 2 2 1 1 - - 0.2
17/10:00am 19.5 22.8 19.2 98 0.2 CALM 0 0 0 0 - - 0.2
17/09:30am 19.2 22.4 18.9 98 0.2 CALM 0 0 0 0 - - 0.2
17/09:00am 19.2 22.0 18.9 98 0.2 SSW 2 4 1 2 - - 7.6
17/08:30am 19.2 21.6 18.9 98 0.2 S 4 6 2 3 - - 7.6
17/08:00am 19.1 21.9 18.8 98 0.2 WSW 2 2 1 1 - - 7.4
17/07:30am 19.1 21.5 18.8 98 0.2 WNW 4 6 2 3 - - 6.2
17/07:00am 19.0 21.4 18.7 98 0.2 W 4 6 2 3 - - 5.2
17/06:30am 19.1 21.5 18.8 98 0.2 WNW 4 6 2 3 - - 4.8
17/06:00am 19.2 22.0 18.9 98 0.2 W 2 6 1 3 - - 3.8
17/05:30am 19.2 22.4 18.9 98 0.2 CALM 0 0 0 0 - - 3.4
17/05:00am 19.2 22.4 18.9 98 0.2 CALM 0 0 0 0 - - 3.2
17/04:30am 19.1 22.3 18.8 98 0.2 CALM 0 6 0 3 - - 3.0
17/04:00am 19.1 21.4 18.6 97 0.3 SSW 4 6 2 3 - - 1.6
17/03:30am 19.1 22.1 18.4 96 0.4 CALM 0 4 0 2 - - 1.2
17/03:00am 19.2 21.3 18.2 94 0.6 WSW 4 7 2 4 - - 1.2
17/02:30am 19.5 21.0 17.6 89 1.2 SW 6 7 3 4 - - 0.6
17/02:00am 20.4 21.7 17.2 82 2.0 SSW 6 7 3 4 - - 0.0
17/01:30am 20.5 22.0 16.7 79 2.3 S 4 4 2 2 - - 0.0
17/01:00am 20.6 22.1 16.6 78 2.4 S 4 6 2 3 - - 0.0
17/12:30am 20.7 21.8 16.7 78 2.4 S 6 7 3 4 - - 0.0
17/12:00am 20.7 21.8 16.5 77 2.5 S 6 7 3 4 - - 0.0
 
Date/Time
EST
Tmp

°C
App
Tmp
°C
Dew
Point
°C
Rel
Hum
%
Delta-T

°C
Wind Press
QNH
hPa
Press
MSL
hPa
Rain
since
9 am
mm
Dir
 
Spd
km/h
Gust
km/h
Spd
kts
Gust
kts
16/11:30pm 20.9 21.8 16.5 76 2.7 SSE 7 11 4 6 - - 0.0
16/11:00pm 21.0 22.0 16.8 77 2.6 SSE 7 13 4 7 - - 0.0
16/10:30pm 21.0 22.6 17.0 78 2.4 SSE 4 6 2 3 - - 0.0
16/10:00pm 21.1 22.0 16.7 76 2.7 SSE 7 13 4 7 - - 0.0
16/09:30pm 21.2 22.3 17.0 77 2.6 S 7 11 4 6 - - 0.0
16/09:00pm 21.3 22.6 17.1 77 2.6 SSE 6 11 3 6 - - 0.0

Latest Capital City Observations: Canberra | Sydney | Melbourne | Brisbane | Adelaide | Perth | Hobart | Darwin

Other Formats:

Comma delimited format used in spreadsheet applications
http://www.bom.gov.au/fwo/IDN60901/IDN60901.94763.axf

JavaScript Object Notation format (JSON) in row-major order
http://www.bom.gov.au/fwo/IDN60901/IDN60901.94763.json